Time;durP1;ratioP1;P1;durP2;ratioP2;P2;SDS_P1;SDS_P2;PMS_P1;PMS_P2;Temp;Humidity;BMP_temperature;BMP_pressure;BME280_temperature;BME280_humidity;BME280_pressure;Samples;Min_cycle;Max_cycle;Signal;HPM_P1;HPM_P2
2024/02/01 00:01:15;;;;;;;2.10;1.40;;;7.20;99.90;;;;;;4988389;28;20045;-76
2024/02/01 00:03:41;;;;;;;0.98;0.88;;;7.20;99.90;;;;;;4992233;28;20149;-76
2024/02/01 00:06:07;;;;;;;3.70;1.33;;;7.30;99.90;;;;;;4993846;28;20061;-76
2024/02/01 00:08:33;;;;;;;3.03;1.70;;;7.30;99.90;;;;;;4991357;28;20085;-77
2024/02/01 00:10:58;;;;;;;2.72;1.50;;;7.30;99.90;;;;;;4992090;28;20104;-77
2024/02/01 00:13:24;;;;;;;1.67;1.35;;;7.30;99.90;;;;;;4989064;28;20081;-76
2024/02/01 00:15:50;;;;;;;3.25;2.05;;;7.40;99.90;;;;;;4988683;28;20125;-76
2024/02/01 00:18:15;;;;;;;1.73;1.13;;;7.40;99.90;;;;;;4991655;28;20037;-77
2024/02/01 00:20:41;;;;;;;2.67;1.58;;;7.40;99.90;;;;;;4991014;28;20411;-77
2024/02/01 00:23:07;;;;;;;3.38;1.38;;;7.40;99.90;;;;;;4991768;28;20038;-77
2024/02/01 00:25:33;;;;;;;4.22;1.63;;;7.40;99.90;;;;;;4995547;28;20496;-76
2024/02/01 00:28:00;;;;;;;3.65;1.70;;;7.50;99.90;;;;;;4987044;28;20433;-76
2024/02/01 00:30:25;;;;;;;1.48;0.82;;;7.50;99.90;;;;;;4989523;28;20042;-76
2024/02/01 00:32:51;;;;;;;0.60;0.50;;;7.60;99.90;;;;;;4990374;28;20038;-77
2024/02/01 00:35:17;;;;;;;2.40;0.98;;;7.60;99.90;;;;;;4992447;28;20054;-77
2024/02/01 00:37:43;;;;;;;2.38;1.27;;;7.70;99.90;;;;;;4973907;28;20106;-77
2024/02/01 00:40:09;;;;;;;5.38;1.48;;;7.80;99.90;;;;;;4978653;28;20706;-78
2024/02/01 00:42:35;;;;;;;2.33;1.25;;;7.90;99.90;;;;;;4976036;28;20038;-78
2024/02/01 00:45:01;;;;;;;2.80;0.90;;;7.90;99.90;;;;;;4974355;28;20041;-78
2024/02/01 00:47:26;;;;;;;1.98;0.93;;;8.00;99.90;;;;;;4992454;28;20382;-78
2024/02/01 00:49:52;;;;;;;2.08;0.90;;;8.00;99.90;;;;;;4991619;28;20034;-77
2024/02/01 00:52:18;;;;;;;1.92;1.45;;;8.10;99.90;;;;;;4983135;28;20049;-78
2024/02/01 00:54:43;;;;;;;3.20;0.75;;;8.00;99.90;;;;;;4992131;28;20133;-77
2024/02/01 00:57:09;;;;;;;1.60;0.73;;;8.10;99.90;;;;;;4995732;28;20065;-77
2024/02/01 00:59:35;;;;;;;0.43;0.43;;;8.10;99.90;;;;;;4989463;28;20042;-77
2024/02/01 01:02:00;;;;;;;1.50;1.08;;;8.20;99.90;;;;;;4991463;28;20061;-77
2024/02/01 01:04:26;;;;;;;0.90;0.60;;;8.20;99.90;;;;;;4972120;28;20042;-77
2024/02/01 01:06:52;;;;;;;4.90;1.33;;;8.30;99.90;;;;;;4976172;28;20038;-76
2024/02/01 01:09:18;;;;;;;2.10;1.13;;;8.30;99.90;;;;;;5002283;28;20409;-77
2024/02/01 01:11:43;;;;;;;1.73;0.98;;;8.30;99.90;;;;;;4991039;28;20037;-77
2024/02/01 01:14:09;;;;;;;3.25;1.00;;;8.40;99.90;;;;;;4976110;28;20072;-76
2024/02/01 01:16:35;;;;;;;1.10;0.68;;;8.40;99.90;;;;;;4992154;28;20065;-77
2024/02/01 01:19:00;;;;;;;4.00;0.98;;;8.40;99.90;;;;;;4990953;28;20048;-77
2024/02/01 01:21:28;;;;;;;1.88;0.98;;;8.40;99.90;;;;;;4992385;28;20114;-76
2024/02/01 01:23:53;;;;;;;1.30;0.80;;;8.50;99.90;;;;;;4991307;28;20450;-77
2024/02/01 01:26:24;;;;;;;0.50;0.45;;;8.40;99.90;;;;;;4989488;28;20046;-77
2024/02/01 01:28:50;;;;;;;3.38;0.93;;;8.50;99.90;;;;;;4989244;28;20148;-78
2024/02/01 01:31:15;;;;;;;0.55;0.30;;;8.50;99.90;;;;;;4994032;28;20137;-77
2024/02/01 01:33:41;;;;;;;1.55;0.65;;;8.50;99.90;;;;;;5009912;28;20121;-77
2024/02/01 01:36:07;;;;;;;5.63;1.13;;;8.60;99.90;;;;;;4992865;28;20474;-76
2024/02/01 01:38:32;;;;;;;9.02;1.40;;;8.60;99.90;;;;;;4991328;28;20129;-76
2024/02/01 01:40:58;;;;;;;4.47;0.63;;;8.60;99.90;;;;;;4990749;28;20041;-76
2024/02/01 01:43:26;;;;;;;0.20;0.20;;;8.60;99.90;;;;;;4980315;28;20042;-77
2024/02/01 01:46:04;;;;;;;2.25;0.70;;;8.60;99.90;;;;;;4987874;28;20065;-77
2024/02/01 01:48:31;;;;;;;4.50;0.45;;;8.60;99.90;;;;;;4986012;28;20481;-77
2024/02/01 01:50:58;;;;;;;9.25;1.75;;;8.50;99.90;;;;;;4985607;28;20402;-77
2024/02/01 01:53:26;;;;;;;0.85;0.60;;;8.60;99.90;;;;;;4990448;28;20046;-76
2024/02/01 01:55:53;;;;;;;2.03;0.95;;;8.60;99.90;;;;;;4988767;28;20194;-76
2024/02/01 01:58:19;;;;;;;5.70;0.70;;;8.50;99.90;;;;;;4982400;28;20676;-75
2024/02/01 02:00:46;;;;;;;4.65;0.60;;;8.50;99.90;;;;;;5006200;28;20093;-75
2024/02/01 02:03:12;;;;;;;3.33;0.50;;;8.50;99.90;;;;;;4993597;28;20042;-75
2024/02/01 02:05:37;;;;;;;1.02;0.50;;;8.50;99.90;;;;;;4989540;28;20038;-74
2024/02/01 02:08:04;;;;;;;3.58;0.90;;;8.50;99.90;;;;;;4990149;28;20049;-75
2024/02/01 02:10:29;;;;;;;3.95;0.80;;;8.50;99.90;;;;;;4976886;28;20048;-74
2024/02/01 02:12:55;;;;;;;7.15;1.42;;;8.50;99.90;;;;;;4993145;28;20947;-74
2024/02/01 02:15:21;;;;;;;6.05;0.50;;;8.40;99.90;;;;;;5009824;28;20061;-75
2024/02/01 02:17:50;;;;;;;3.70;1.58;;;8.30;99.90;;;;;;4989747;28;20046;-74
2024/02/01 02:20:17;;;;;;;0.38;0.22;;;8.30;99.90;;;;;;4973785;28;20038;-74
2024/02/01 02:22:47;;;;;;;3.30;0.43;;;8.20;99.90;;;;;;4989405;28;20482;-74
2024/02/01 02:25:13;;;;;;;3.25;0.80;;;8.20;99.90;;;;;;4989697;28;20042;-74
2024/02/01 02:27:43;;;;;;;6.45;0.50;;;8.10;99.90;;;;;;4970708;28;20050;-76
2024/02/01 02:30:13;;;;;;;2.47;0.52;;;8.10;99.90;;;;;;4991534;28;20069;-75
2024/02/01 02:32:40;;;;;;;7.75;0.52;;;8.00;99.90;;;;;;4988676;28;20042;-76
2024/02/01 02:35:16;;;;;;;3.03;0.47;;;8.00;99.90;;;;;;4986607;28;20108;-75
2024/02/01 02:37:49;;;;;;;0.10;0.10;;;7.90;99.90;;;;;;4984070;28;20116;-77
2024/02/01 02:40:18;;;;;;;0.45;0.28;;;7.80;99.90;;;;;;4993109;28;20049;-74
2024/02/01 02:42:44;;;;;;;9.55;0.40;;;7.70;99.90;;;;;;4986038;28;20363;-75
2024/02/01 02:45:10;;;;;;;9.65;0.93;;;7.60;99.90;;;;;;4976534;28;20426;-75
2024/02/01 02:47:38;;;;;;;4.15;1.35;;;7.60;99.90;;;;;;4971778;28;20041;-75
2024/02/01 02:50:08;;;;;;;2.92;0.28;;;7.50;99.90;;;;;;4991707;28;20045;-74
2024/02/01 02:52:36;;;;;;;2.72;0.55;;;7.40;99.90;;;;;;5004116;28;20081;-74
2024/02/01 02:55:02;;;;;;;0.57;0.28;;;7.40;99.90;;;;;;4990984;28;20125;-75
2024/02/01 02:57:29;;;;;;;3.85;0.57;;;7.40;99.90;;;;;;4988775;28;20109;-76
2024/02/01 02:59:55;;;;;;;3.83;0.77;;;7.30;99.90;;;;;;4989775;28;20046;-74
2024/02/01 03:02:20;;;;;;;4.10;0.43;;;7.30;99.90;;;;;;4989597;28;20088;-75
2024/02/01 03:04:46;;;;;;;9.82;0.60;;;7.20;99.90;;;;;;4990183;28;20568;-75
2024/02/01 03:07:12;;;;;;;3.60;0.30;;;7.10;99.90;;;;;;4975988;28;20053;-75
2024/02/01 03:09:38;;;;;;;4.95;0.45;;;7.00;99.90;;;;;;4987615;28;20042;-75
2024/02/01 03:12:06;;;;;;;2.22;0.45;;;6.90;99.90;;;;;;4991010;28;20037;-76
2024/02/01 03:14:40;;;;;;;0.68;0.55;;;6.90;99.90;;;;;;4988219;28;20054;-76
2024/02/01 03:17:08;;;;;;;0.88;0.40;;;6.80;99.90;;;;;;4989186;28;20054;-75
2024/02/01 03:19:34;;;;;;;1.40;0.63;;;6.70;99.90;;;;;;4987837;28;20042;-75
2024/02/01 03:22:00;;;;;;;6.20;1.17;;;6.60;99.90;;;;;;4972429;28;20089;-76
2024/02/01 03:24:28;;;;;;;1.90;0.38;;;6.50;99.90;;;;;;4988983;28;20473;-75
2024/02/01 03:26:56;;;;;;;0.40;0.40;;;6.50;99.90;;;;;;4985310;28;20054;-75
2024/02/01 03:29:22;;;;;;;0.95;0.40;;;6.50;99.90;;;;;;4985244;28;20531;-76
2024/02/01 03:31:48;;;;;;;8.68;1.05;;;6.30;99.90;;;;;;4985323;28;20038;-76
2024/02/01 03:34:20;;;;;;;3.67;0.40;;;6.30;99.90;;;;;;4975490;28;20046;-75
2024/02/01 03:36:52;;;;;;;4.53;0.40;;;6.20;99.90;;;;;;4989522;28;20101;-75
2024/02/01 03:39:22;;;;;;;0.45;0.15;;;6.10;99.90;;;;;;4962276;28;20038;-75
2024/02/01 03:41:50;;;;;;;6.32;0.60;;;6.00;99.90;;;;;;4969156;28;20041;-76
2024/02/01 03:44:16;;;;;;;2.22;0.45;;;6.00;99.90;;;;;;4995347;28;20045;-75
2024/02/01 03:46:42;;;;;;;6.90;1.13;;;5.90;99.90;;;;;;4990848;28;20042;-76
2024/02/01 03:49:08;;;;;;;1.80;0.70;;;5.90;99.90;;;;;;4993060;28;20038;-76
2024/02/01 03:51:36;;;;;;;8.77;0.80;;;5.90;99.90;;;;;;4985276;28;20050;-76
2024/02/01 03:54:05;;;;;;;3.13;0.30;;;5.80;99.90;;;;;;4972043;28;20344;-75
2024/02/01 03:56:41;;;;;;;3.80;1.40;;;5.70;99.90;;;;;;4994261;28;20050;-75
2024/02/01 03:59:09;;;;;;;4.57;0.52;;;5.70;99.90;;;;;;4992472;28;20125;-76
2024/02/01 04:01:36;;;;;;;1.75;0.65;;;5.60;99.90;;;;;;4996618;28;20033;-76
2024/02/01 04:04:05;;;;;;;14.30;0.70;;;5.50;99.90;;;;;;4975913;28;20050;-76
2024/02/01 04:06:37;;;;;;;5.60;1.48;;;5.50;99.90;;;;;;4992593;28;20037;-76
2024/02/01 04:09:06;;;;;;;2.20;0.60;;;5.40;99.90;;;;;;4993548;28;20129;-75
2024/02/01 04:11:32;;;;;;;10.02;0.93;;;5.40;99.90;;;;;;4991966;28;20042;-75
2024/02/01 04:13:58;;;;;;;15.77;0.73;;;5.40;99.90;;;;;;4993259;28;20039;-75
2024/02/01 04:16:24;;;;;;;1.60;0.20;;;5.30;99.90;;;;;;4992073;28;20513;-75
2024/02/01 04:18:51;;;;;;;3.30;0.95;;;5.30;99.90;;;;;;4989559;28;20043;-75
2024/02/01 04:21:17;;;;;;;5.90;0.38;;;5.20;99.90;;;;;;4992781;28;20049;-75
2024/02/01 04:23:43;;;;;;;2.35;0.80;;;5.10;99.90;;;;;;4991406;28;20038;-75
2024/02/01 04:26:14;;;;;;;4.65;0.82;;;5.10;99.90;;;;;;4993734;28;20050;-76
2024/02/01 04:28:43;;;;;;;0.68;0.40;;;5.00;99.90;;;;;;4989677;28;20046;-76
2024/02/01 04:31:09;;;;;;;8.40;0.90;;;4.90;99.90;;;;;;4995182;28;20505;-75
2024/02/01 04:33:35;;;;;;;2.45;0.17;;;4.90;99.90;;;;;;4976653;28;20042;-75
2024/02/01 04:36:00;;;;;;;10.75;1.05;;;5.00;99.90;;;;;;4996055;28;20112;-76
2024/02/01 04:38:26;;;;;;;2.85;0.50;;;4.90;99.90;;;;;;4990135;28;20053;-75
2024/02/01 04:40:52;;;;;;;7.35;1.17;;;4.80;99.90;;;;;;4976134;28;20045;-75
2024/02/01 04:43:19;;;;;;;0.85;0.32;;;4.80;99.90;;;;;;4990310;28;20049;-74
2024/02/01 04:45:45;;;;;;;2.72;0.60;;;4.80;99.90;;;;;;4990267;28;20041;-76
2024/02/01 04:48:11;;;;;;;6.40;0.55;;;4.80;99.90;;;;;;4992603;28;20037;-75
2024/02/01 04:50:37;;;;;;;2.78;0.57;;;4.80;99.90;;;;;;4994434;28;20038;-75
2024/02/01 04:53:04;;;;;;;1.25;0.32;;;4.70;99.90;;;;;;4976873;28;20101;-76
2024/02/01 04:55:30;;;;;;;2.97;0.38;;;4.70;99.90;;;;;;4989568;28;20049;-75
2024/02/01 04:57:56;;;;;;;6.18;0.75;;;4.70;99.90;;;;;;4989002;28;20229;-75
2024/02/01 05:00:22;;;;;;;9.48;1.13;;;4.60;99.90;;;;;;4991087;28;20122;-75
2024/02/01 05:02:48;;;;;;;4.03;0.50;;;4.60;99.90;;;;;;4991789;28;20101;-74
2024/02/01 05:05:16;;;;;;;0.47;0.28;;;4.50;99.90;;;;;;4992840;28;20046;-74
2024/02/01 05:07:42;;;;;;;3.00;0.45;;;4.50;99.90;;;;;;4972835;28;20039;-76
2024/02/01 05:10:09;;;;;;;4.10;1.08;;;4.40;99.90;;;;;;4994226;28;20049;-74
2024/02/01 05:12:35;;;;;;;1.90;0.35;;;4.50;99.90;;;;;;4998019;28;20037;-74
2024/02/01 05:15:02;;;;;;;2.28;1.05;;;4.40;99.90;;;;;;4991891;28;20127;-74
2024/02/01 05:17:28;;;;;;;1.80;0.28;;;4.30;99.90;;;;;;4994097;28;20095;-74
2024/02/01 05:19:54;;;;;;;6.43;0.50;;;4.30;99.90;;;;;;4978864;28;20507;-74
2024/02/01 05:22:19;;;;;;;0.10;0.00;;;4.30;99.90;;;;;;4991484;28;20216;-75
2024/02/01 05:24:45;;;;;;;0.88;0.60;;;4.20;99.90;;;;;;4994019;28;20405;-74
2024/02/01 05:27:11;;;;;;;12.75;1.13;;;4.20;99.90;;;;;;4992629;28;20509;-75
2024/02/01 05:29:39;;;;;;;2.78;0.85;;;4.20;99.90;;;;;;4989682;28;20205;-75
2024/02/01 05:32:08;;;;;;;1.65;0.80;;;4.10;99.90;;;;;;4975591;28;20097;-74
2024/02/01 05:34:36;;;;;;;2.25;0.60;;;4.10;99.90;;;;;;4991469;28;20042;-75
2024/02/01 05:37:02;;;;;;;1.05;0.43;;;4.10;99.90;;;;;;5009455;28;20055;-75
2024/02/01 05:39:28;;;;;;;5.88;0.47;;;3.90;99.90;;;;;;4990144;28;20054;-74
2024/02/01 05:41:58;;;;;;;11.77;1.02;;;4.00;99.90;;;;;;4994263;28;20136;-74
2024/02/01 05:44:26;;;;;;;7.15;0.75;;;3.90;99.90;;;;;;4989064;28;20069;-74
2024/02/01 05:46:54;;;;;;;13.18;1.15;;;3.90;99.90;;;;;;4989761;28;20050;-74
2024/02/01 05:49:24;;;;;;;11.57;0.57;;;3.80;99.90;;;;;;4971338;28;20086;-74
2024/02/01 05:51:53;;;;;;;2.53;0.60;;;3.80;99.90;;;;;;4987343;28;20050;-74
2024/02/01 05:54:21;;;;;;;2.20;0.55;;;3.80;99.90;;;;;;4988654;28;20398;-74
2024/02/01 05:56:49;;;;;;;0.30;0.28;;;3.80;99.90;;;;;;4988884;28;20042;-77
2024/02/01 05:59:17;;;;;;;2.35;0.50;;;3.80;99.90;;;;;;5001904;28;20072;-74
2024/02/01 06:01:44;;;;;;;3.53;0.38;;;3.70;99.90;;;;;;4973828;28;20034;-74
2024/02/01 06:04:10;;;;;;;0.22;0.17;;;3.70;99.90;;;;;;4992223;28;20044;-75
2024/02/01 06:06:54;;;;;;;6.03;0.68;;;3.70;99.90;;;;;;4976271;28;20456;-75
2024/02/01 06:09:20;;;;;;;1.02;0.35;;;3.70;99.90;;;;;;4986720;28;20050;-75
2024/02/01 06:11:50;;;;;;;13.55;0.82;;;3.70;99.90;;;;;;5008283;28;20121;-75
2024/02/01 06:14:15;;;;;;;11.57;0.82;;;3.60;99.90;;;;;;4971313;28;20405;-75
2024/02/01 06:16:43;;;;;;;7.65;0.52;;;3.60;99.90;;;;;;4973643;28;20057;-75
2024/02/01 06:19:09;;;;;;;1.88;0.80;;;3.70;99.90;;;;;;4972252;28;20121;-75
2024/02/01 06:21:34;;;;;;;1.35;0.95;;;3.60;99.90;;;;;;4974360;28;20117;-76
2024/02/01 06:24:01;;;;;;;14.18;1.27;;;3.60;99.90;;;;;;4991502;28;20584;-76
2024/02/01 06:26:28;;;;;;;3.33;0.57;;;3.60;99.90;;;;;;4992559;28;20120;-75
2024/02/01 06:29:07;;;;;;;3.83;0.57;;;3.60;99.90;;;;;;4990567;28;20346;-75
2024/02/01 06:31:39;;;;;;;4.28;0.30;;;3.60;99.90;;;;;;4992226;28;20037;-75
2024/02/01 06:34:09;;;;;;;4.95;0.70;;;3.60;99.90;;;;;;4991440;28;20038;-75
2024/02/01 06:36:37;;;;;;;2.38;0.55;;;3.60;99.90;;;;;;4989189;28;20128;-75
2024/02/01 06:39:16;;;;;;;4.00;0.20;;;3.60;99.90;;;;;;4976251;28;20070;-75
2024/02/01 06:44:22;;;;;;;1.63;0.50;;;3.60;99.90;;;;;;4988732;28;20536;-75
2024/02/01 06:52:24;;;;;;;2.50;0.43;;;3.70;99.90;;;;;;4989872;28;20509;-76
2024/02/01 06:55:14;;;;;;;12.38;0.52;;;3.60;99.90;;;;;;4990448;28;20084;-75
2024/02/01 07:16:35;;;;;;;2.95;0.57;;;3.40;99.90;;;;;;4992505;28;20466;-75
2024/02/01 07:22:12;;;;;;;1.88;0.30;;;3.40;99.90;;;;;;4987391;28;20042;-75
2024/02/01 07:57:35;;;;;;;0.50;0.25;;;3.80;99.90;;;;;;4990014;28;20108;-74
2024/02/01 08:00:01;;;;;;;0.95;0.63;;;4.00;99.90;;;;;;4990726;28;20437;-74
2024/02/01 08:07:56;;;;;;;1.45;0.65;;;5.00;99.90;;;;;;4989891;28;20046;-73
2024/02/01 08:10:23;;;;;;;3.70;1.13;;;5.40;99.90;;;;;;4992883;28;20042;-75
2024/02/01 08:12:49;;;;;;;3.78;0.68;;;5.70;99.90;;;;;;4989342;28;20513;-74
2024/02/01 08:15:19;;;;;;;1.05;0.10;;;6.00;99.90;;;;;;4992889;28;20128;-75
2024/02/01 08:17:52;;;;;;;5.03;0.73;;;6.20;99.90;;;;;;4977069;28;20129;-75
2024/02/01 08:20:21;;;;;;;1.90;0.28;;;6.50;99.90;;;;;;4991723;28;20046;-74
2024/02/01 08:22:47;;;;;;;4.88;0.70;;;6.80;99.90;;;;;;4991937;28;20504;-75
2024/02/01 08:25:14;;;;;;;2.10;0.45;;;7.00;99.90;;;;;;4978480;28;20041;-75
2024/02/01 08:27:53;;;;;;;0.73;0.32;;;7.30;99.90;;;;;;4981191;28;20041;-75
2024/02/01 08:30:27;;;;;;;8.90;0.93;;;7.50;99.90;;;;;;4988675;28;20040;-74
2024/02/01 08:32:53;;;;;;;5.32;0.55;;;7.70;99.90;;;;;;4994974;28;20108;-75
2024/02/01 08:35:20;;;;;;;4.90;0.80;;;7.90;99.90;;;;;;4995548;28;20049;-75
2024/02/01 08:37:45;;;;;;;3.05;0.57;;;8.20;99.90;;;;;;4996268;28;20045;-75
2024/02/01 08:40:20;;;;;;;9.73;1.25;;;8.40;99.90;;;;;;4992233;28;20089;-75
2024/02/01 08:42:49;;;;;;;;;;;8.50;99.90;;;;;;4994625;28;20121;-76
2024/02/01 08:45:16;;;;;;;3.20;0.20;;;8.80;99.90;;;;;;4995513;28;19917;-75
2024/02/01 08:47:43;;;;;;;2.20;0.45;;;9.10;99.90;;;;;;4994792;28;20053;-76
2024/02/01 08:50:10;;;;;;;6.95;0.90;;;9.40;99.90;;;;;;4974005;28;20119;-76
2024/02/01 08:52:38;;;;;;;6.88;1.20;;;9.60;99.90;;;;;;4994065;28;20030;-76
2024/02/01 08:55:10;;;;;;;3.80;0.73;;;9.90;99.90;;;;;;4993327;28;20049;-76
2024/02/01 08:57:38;;;;;;;2.13;0.55;;;10.10;99.90;;;;;;4992700;28;20038;-76
2024/02/01 09:00:21;;;;;;;6.65;1.02;;;10.40;99.90;;;;;;4994348;28;20121;-76
2024/02/01 09:03:03;;;;;;;6.15;0.68;;;10.60;99.90;;;;;;4995445;28;20095;-76
2024/02/01 09:05:36;;;;;;;11.88;0.77;;;10.80;99.90;;;;;;4992025;28;20078;-76
2024/02/01 09:08:04;;;;;;;6.50;1.00;;;10.90;99.90;;;;;;4995346;28;20049;-76
2024/02/01 09:10:31;;;;;;;5.18;0.40;;;11.20;99.90;;;;;;4996085;28;20050;-76
2024/02/01 09:12:57;;;;;;;10.50;1.70;;;11.30;99.90;;;;;;4994836;28;20073;-77
2024/02/01 09:15:23;;;;;;;14.77;0.75;;;11.40;99.90;;;;;;4994198;28;20104;-77
2024/02/01 09:17:49;;;;;;;11.18;1.00;;;11.60;99.90;;;;;;4992927;28;20153;-77
2024/02/01 09:20:20;;;;;;;7.82;1.05;;;11.70;99.90;;;;;;4988869;28;20133;-78
2024/02/01 09:22:48;;;;;;;8.90;1.40;;;11.90;99.90;;;;;;4975138;28;20061;-74
2024/02/01 09:25:19;;;;;;;1.65;0.30;;;12.20;99.90;;;;;;4975074;28;20078;-74
2024/02/01 09:27:45;;;;;;;7.57;1.20;;;12.50;99.90;;;;;;4991929;28;20624;-74
2024/02/01 09:30:11;;;;;;;4.80;0.50;;;12.90;99.90;;;;;;4992522;28;20394;-74
2024/02/01 09:32:41;;;;;;;5.63;1.05;;;13.10;99.90;;;;;;4989341;28;20085;-74
2024/02/01 09:35:09;;;;;;;9.32;0.63;;;13.20;99.90;;;;;;4976897;28;20579;-73
2024/02/01 09:37:35;;;;;;;3.08;0.77;;;13.30;99.90;;;;;;4991327;28;20058;-73
2024/02/01 09:40:02;;;;;;;12.95;0.75;;;13.40;99.90;;;;;;4992900;28;20042;-73
2024/02/01 09:42:27;;;;;;;5.88;0.52;;;13.60;99.90;;;;;;4991450;28;20519;-74
2024/02/01 09:44:56;;;;;;;6.80;0.88;;;13.60;99.90;;;;;;4991349;28;20038;-73
2024/02/01 09:47:24;;;;;;;6.22;0.70;;;13.80;99.90;;;;;;4993654;28;20553;-75
2024/02/01 09:49:53;;;;;;;6.47;0.88;;;13.70;99.90;;;;;;4977722;28;20048;-74
2024/02/01 09:52:19;;;;;;;10.13;1.27;;;13.70;99.90;;;;;;4975048;28;20041;-74
2024/02/01 09:54:46;;;;;;;4.78;0.73;;;13.50;99.90;;;;;;4977135;28;20111;-74
2024/02/01 09:57:16;;;;;;;3.22;0.60;;;13.70;99.90;;;;;;4991995;28;20077;-75
2024/02/01 09:59:43;;;;;;;8.65;0.85;;;13.90;99.90;;;;;;4991265;28;20119;-75
2024/02/01 10:02:10;;;;;;;4.70;0.70;;;14.10;99.90;;;;;;4992465;28;20065;-74
2024/02/01 10:04:36;;;;;;;5.78;0.70;;;14.10;99.90;;;;;;4988783;28;20041;-74
2024/02/01 10:07:02;;;;;;;3.22;0.65;;;14.10;99.90;;;;;;4992378;28;20046;-74
2024/02/01 10:09:29;;;;;;;5.88;0.95;;;14.10;99.90;;;;;;4991645;28;20073;-74
2024/02/01 10:11:55;;;;;;;2.08;0.75;;;14.00;99.90;;;;;;5007564;28;20053;-74
2024/02/01 10:14:34;;;;;;;2.45;0.55;;;14.10;99.90;;;;;;4988266;28;20121;-74
2024/02/01 10:17:07;;;;;;;3.00;0.82;;;14.10;99.90;;;;;;4991634;28;20439;-75
2024/02/01 10:19:37;;;;;;;8.77;1.27;;;14.00;99.90;;;;;;4989051;28;20120;-74
2024/02/01 10:22:10;;;;;;;3.80;0.63;;;14.00;99.90;;;;;;4971511;28;20053;-76
2024/02/01 10:24:45;;;;;;;1.92;0.40;;;14.20;99.90;;;;;;5009233;28;20045;-74
2024/02/01 10:27:11;;;;;;;;;;;14.30;99.90;;;;;;4989838;28;20444;-74
2024/02/01 10:29:40;;;;;;;11.55;0.70;;;14.20;99.90;;;;;;4990292;28;19917;-74
2024/02/01 10:32:12;;;;;;;2.72;0.60;;;14.20;99.90;;;;;;5005789;28;20070;-74
2024/02/01 10:34:50;;;;;;;3.70;0.50;;;14.20;99.90;;;;;;4989699;28;20062;-73
2024/02/01 10:37:17;;;;;;;2.97;1.20;;;14.10;99.90;;;;;;4991790;28;20038;-74
2024/02/01 10:39:53;;;;;;;4.55;0.80;;;14.10;99.90;;;;;;4993207;28;20042;-75
2024/02/01 10:42:21;;;;;;;6.18;0.95;;;13.80;99.90;;;;;;4982800;28;20060;-74
2024/02/01 10:44:50;;;;;;;6.40;1.13;;;13.10;99.90;;;;;;4974028;28;20042;-74
2024/02/01 10:47:20;;;;;;;4.47;0.95;;;12.20;99.90;;;;;;4990952;28;20065;-72
2024/02/01 10:49:54;;;;;;;6.43;1.17;;;11.50;99.90;;;;;;4989828;28;20042;-74
2024/02/01 10:52:21;;;;;;;6.22;0.30;;;10.90;99.90;;;;;;4988303;28;20096;-72
2024/02/01 10:54:51;;;;;;;5.03;0.60;;;10.40;99.90;;;;;;4991385;28;20116;-75
2024/02/01 10:57:18;;;;;;;7.53;0.35;;;10.20;99.90;;;;;;4987148;28;20140;-73
2024/02/01 10:59:50;;;;;;;3.35;0.52;;;9.90;99.90;;;;;;4981988;28;20049;-74
2024/02/01 11:02:16;;;;;;;4.43;0.60;;;9.70;99.90;;;;;;4990195;28;20038;-74
2024/02/01 11:04:53;;;;;;;7.00;1.52;;;9.60;99.90;;;;;;4990258;28;20051;-73
2024/02/01 11:07:23;;;;;;;3.38;0.43;;;9.60;99.90;;;;;;4985834;28;20521;-72
2024/02/01 11:09:50;;;;;;;7.68;0.75;;;9.40;99.90;;;;;;4989748;28;20514;-72
2024/02/01 11:12:24;;;;;;;5.32;0.70;;;9.30;99.90;;;;;;5005213;28;20150;-72
2024/02/01 11:14:51;;;;;;;5.68;0.63;;;9.20;99.90;;;;;;5008176;28;20398;-72
2024/02/01 11:17:23;;;;;;;11.43;1.42;;;9.20;99.90;;;;;;4991241;28;20470;-73
2024/02/01 11:19:50;;;;;;;3.78;0.77;;;9.20;99.90;;;;;;4991694;28;20049;-72
2024/02/01 11:22:20;;;;;;;4.00;0.65;;;9.20;99.90;;;;;;4991849;28;20073;-71
2024/02/01 11:24:46;;;;;;;6.30;1.35;;;9.30;99.90;;;;;;4975813;28;20046;-73
2024/02/01 11:27:19;;;;;;;10.70;2.28;;;9.30;99.90;;;;;;4990942;28;20130;-72
2024/02/01 11:29:51;;;;;;;7.38;0.77;;;9.30;99.90;;;;;;4988659;28;20034;-71
2024/02/01 11:32:19;;;;;;;4.97;0.68;;;9.20;99.90;;;;;;4985921;28;20046;-72
2024/02/01 11:34:49;;;;;;;3.15;0.30;;;9.30;99.90;;;;;;4978243;28;21682;-71
2024/02/01 11:37:23;;;;;;;9.45;0.85;;;9.30;99.90;;;;;;4976090;28;20038;-72
2024/02/01 11:39:51;;;;;;;2.85;0.40;;;9.30;99.90;;;;;;4992993;28;20864;-71
2024/02/01 11:42:21;;;;;;;5.45;1.08;;;9.30;99.90;;;;;;4992965;28;20042;-71
2024/02/01 11:44:48;;;;;;;1.48;0.32;;;9.20;99.90;;;;;;4988540;28;20588;-71
2024/02/01 11:47:14;;;;;;;7.63;0.65;;;9.10;99.90;;;;;;4991549;28;20046;-71
2024/02/01 11:49:41;;;;;;;2.88;0.60;;;9.20;99.90;;;;;;4990707;28;20037;-72
2024/02/01 11:52:36;;;;;;;6.63;0.95;;;9.20;99.90;;;;;;4987294;28;20389;-71
2024/02/01 11:55:04;;;;;;;4.45;1.08;;;9.30;99.90;;;;;;4993300;28;20527;-71
2024/02/01 11:57:32;;;;;;;6.28;0.85;;;9.30;99.90;;;;;;4988503;28;20450;-71
2024/02/01 11:59:58;;;;;;;3.15;0.65;;;9.30;99.90;;;;;;4995409;28;20093;-71
2024/02/01 12:02:25;;;;;;;7.57;1.38;;;9.30;99.90;;;;;;4973498;28;20046;-72
2024/02/01 12:04:51;;;;;;;3.47;1.02;;;9.30;99.90;;;;;;4995607;28;20505;-71
2024/02/01 12:07:18;;;;;;;5.72;0.63;;;9.30;99.90;;;;;;4993974;28;20120;-72
2024/02/01 12:09:48;;;;;;;4.43;0.82;;;9.30;99.90;;;;;;4995057;28;20050;-71
2024/02/01 12:12:23;;;;;;;4.72;0.90;;;9.30;99.90;;;;;;4991582;28;20041;-72
2024/02/01 12:14:54;;;;;;;0.73;0.52;;;9.30;99.90;;;;;;4993866;28;20497;-71
2024/02/01 12:17:24;;;;;;;1.77;0.52;;;9.20;99.90;;;;;;4994803;28;20038;-72
2024/02/01 12:19:51;;;;;;;2.40;0.32;;;9.20;99.90;;;;;;4994804;28;20468;-71
2024/02/01 12:22:19;;;;;;;4.22;0.77;;;9.20;99.90;;;;;;4992339;28;20045;-71
2024/02/01 12:24:45;;;;;;;2.50;0.77;;;9.00;99.90;;;;;;4992613;28;20492;-71
2024/02/01 12:27:12;;;;;;;6.75;0.88;;;9.00;99.90;;;;;;4993678;28;20048;-73
2024/02/01 12:29:38;;;;;;;5.90;0.40;;;8.90;99.90;;;;;;4975889;28;20041;-71
2024/02/01 12:32:11;;;;;;;6.88;0.73;;;8.90;99.90;;;;;;4975285;28;20042;-72
2024/02/01 12:34:39;;;;;;;6.10;1.20;;;8.80;99.90;;;;;;4999553;28;20048;-71
2024/02/01 12:37:07;;;;;;;9.57;0.70;;;8.80;99.90;;;;;;4994487;28;20096;-72
2024/02/01 12:39:36;;;;;;;5.47;0.32;;;8.80;99.90;;;;;;4994514;28;20042;-72
2024/02/01 12:42:03;;;;;;;8.30;0.68;;;8.80;99.90;;;;;;4999374;28;20037;-71
2024/02/01 12:44:34;;;;;;;6.60;1.02;;;8.80;99.90;;;;;;4992447;28;20042;-72
2024/02/01 12:47:00;;;;;;;8.43;0.90;;;8.80;99.90;;;;;;4994763;28;20041;-71
2024/02/01 12:49:30;;;;;;;5.18;0.70;;;8.80;99.90;;;;;;4975883;28;20037;-71
2024/02/01 12:52:04;;;;;;;5.05;0.40;;;8.80;99.90;;;;;;4991613;28;20045;-72
2024/02/01 12:54:33;;;;;;;6.90;1.15;;;8.80;99.90;;;;;;4993889;28;20129;-71
2024/02/01 12:56:59;;;;;;;2.58;0.60;;;8.90;99.90;;;;;;4992128;28;20096;-73
2024/02/01 12:59:25;;;;;;;2.30;0.40;;;8.90;99.90;;;;;;4989284;28;20046;-74
2024/02/01 13:01:51;;;;;;;3.92;0.57;;;8.90;99.90;;;;;;4992089;28;20049;-73
2024/02/01 13:04:17;;;;;;;2.80;0.50;;;9.00;99.90;;;;;;4978415;28;20038;-72
2024/02/01 13:06:43;;;;;;;6.65;1.05;;;9.00;99.90;;;;;;4997436;28;20038;-72
2024/02/01 13:09:22;;;;;;;6.57;0.60;;;9.10;99.90;;;;;;4991523;28;20046;-73
2024/02/01 13:11:48;;;;;;;2.53;0.90;;;9.10;99.90;;;;;;4991935;28;20057;-73
2024/02/01 13:14:28;;;;;;;2.85;0.52;;;9.00;99.90;;;;;;4975841;28;20100;-76
2024/02/01 13:16:56;;;;;;;2.03;1.00;;;9.10;99.90;;;;;;4970384;28;20041;-75
2024/02/01 13:19:23;;;;;;;6.90;1.00;;;9.00;99.90;;;;;;4997097;28;20408;-75
2024/02/01 13:21:50;;;;;;;6.15;0.55;;;9.00;99.90;;;;;;4992329;28;20052;-77
2024/02/01 13:24:16;;;;;;;6.50;0.85;;;8.90;99.90;;;;;;4990438;28;20492;-75
2024/02/01 13:26:42;;;;;;;5.18;1.17;;;8.90;99.90;;;;;;4973066;28;20124;-74
2024/02/01 13:29:13;;;;;;;3.67;1.80;;;8.90;99.90;;;;;;4992205;28;20038;-73
2024/02/01 13:31:41;;;;;;;3.70;0.93;;;8.90;99.90;;;;;;4993209;28;20045;-77
2024/02/01 13:34:06;;;;;;;6.25;1.98;;;8.90;99.90;;;;;;4987635;28;20129;-74
2024/02/01 13:36:32;;;;;;;1.55;0.60;;;8.90;99.90;;;;;;4977808;28;20443;-75
2024/02/01 13:38:58;;;;;;;7.78;0.60;;;8.90;99.90;;;;;;4998020;28;20037;-75
2024/02/01 13:41:24;;;;;;;4.82;0.95;;;8.90;99.90;;;;;;4990783;28;20048;-74
2024/02/01 13:43:49;;;;;;;1.55;0.45;;;8.90;99.90;;;;;;4993904;28;20041;-73
2024/02/01 13:46:15;;;;;;;4.88;1.13;;;8.90;99.90;;;;;;4989475;28;20037;-73
2024/02/01 13:48:41;;;;;;;2.72;0.30;;;9.10;99.90;;;;;;4993368;28;20088;-72
2024/02/01 13:51:08;;;;;;;4.22;1.13;;;9.00;99.90;;;;;;4976941;28;20040;-72
2024/02/01 13:53:37;;;;;;;6.00;0.45;;;9.00;99.90;;;;;;4991404;28;20595;-68
2024/02/01 13:56:03;;;;;;;7.57;0.40;;;8.90;99.90;;;;;;4974669;28;20514;-73
2024/02/01 13:58:30;;;;;;;2.95;0.65;;;8.80;99.90;;;;;;4988832;28;20135;-73
2024/02/01 14:00:56;;;;;;;8.40;0.80;;;8.90;99.90;;;;;;4991192;28;20046;-73
2024/02/01 14:03:21;;;;;;;10.38;0.98;;;9.60;99.90;;;;;;4977066;28;20064;-72
2024/02/01 14:05:47;;;;;;;3.08;0.30;;;10.00;99.90;;;;;;4976312;28;20030;-73
2024/02/01 14:08:13;;;;;;;1.48;0.25;;;10.10;99.90;;;;;;5007557;28;20042;-73